sensor_id;sensor_type;location;lat;lon;timestamp;P1;durP1;ratioP1;P2;durP2;ratioP2
11568;SDS011;5840;46.894;15.542;2023-05-27T00:00:24;8.33;;;7.60;;
11568;SDS011;5840;46.894;15.542;2023-05-27T00:02:51;8.27;;;7.50;;
11568;SDS011;5840;46.894;15.542;2023-05-27T00:05:19;7.73;;;7.13;;
11568;SDS011;5840;46.894;15.542;2023-05-27T00:07:46;8.17;;;7.37;;
11568;SDS011;5840;46.894;15.542;2023-05-27T00:10:13;10.43;;;7.60;;
11568;SDS011;5840;46.894;15.542;2023-05-27T00:12:40;8.90;;;8.10;;
11568;SDS011;5840;46.894;15.542;2023-05-27T00:15:07;7.47;;;6.87;;
11568;SDS011;5840;46.894;15.542;2023-05-27T00:17:34;7.77;;;7.07;;
11568;SDS011;5840;46.894;15.542;2023-05-27T00:20:01;8.40;;;7.60;;
11568;SDS011;5840;46.894;15.542;2023-05-27T00:22:34;8.37;;;7.60;;
11568;SDS011;5840;46.894;15.542;2023-05-27T00:25:02;8.50;;;7.80;;
11568;SDS011;5840;46.894;15.542;2023-05-27T00:27:30;7.93;;;7.33;;
11568;SDS011;5840;46.894;15.542;2023-05-27T00:29:57;8.30;;;7.60;;
11568;SDS011;5840;46.894;15.542;2023-05-27T00:32:24;8.07;;;7.37;;
11568;SDS011;5840;46.894;15.542;2023-05-27T00:34:51;8.23;;;7.43;;
11568;SDS011;5840;46.894;15.542;2023-05-27T00:37:18;7.93;;;7.23;;
11568;SDS011;5840;46.894;15.542;2023-05-27T00:39:46;8.00;;;7.20;;
11568;SDS011;5840;46.894;15.542;2023-05-27T00:42:13;8.67;;;7.97;;
11568;SDS011;5840;46.894;15.542;2023-05-27T00:44:40;7.77;;;7.07;;
11568;SDS011;5840;46.894;15.542;2023-05-27T00:47:07;8.60;;;7.90;;
11568;SDS011;5840;46.894;15.542;2023-05-27T00:49:34;8.70;;;7.70;;
11568;SDS011;5840;46.894;15.542;2023-05-27T00:52:01;8.23;;;7.53;;
11568;SDS011;5840;46.894;15.542;2023-05-27T00:54:29;8.57;;;7.77;;
11568;SDS011;5840;46.894;15.542;2023-05-27T00:56:58;8.43;;;7.73;;
11568;SDS011;5840;46.894;15.542;2023-05-27T00:59:27;8.50;;;7.80;;
11568;SDS011;5840;46.894;15.542;2023-05-27T01:01:54;9.33;;;8.13;;
11568;SDS011;5840;46.894;15.542;2023-05-27T01:04:21;8.80;;;7.97;;
11568;SDS011;5840;46.894;15.542;2023-05-27T01:06:50;8.90;;;8.20;;
11568;SDS011;5840;46.894;15.542;2023-05-27T01:09:26;8.67;;;7.83;;
11568;SDS011;5840;46.894;15.542;2023-05-27T01:12:05;8.57;;;7.67;;
11568;SDS011;5840;46.894;15.542;2023-05-27T01:14:37;8.30;;;7.60;;
11568;SDS011;5840;46.894;15.542;2023-05-27T01:17:06;8.80;;;8.10;;
11568;SDS011;5840;46.894;15.542;2023-05-27T01:19:35;9.00;;;8.20;;
11568;SDS011;5840;46.894;15.542;2023-05-27T01:22:05;8.63;;;7.93;;
11568;SDS011;5840;46.894;15.542;2023-05-27T01:24:35;8.40;;;7.70;;
11568;SDS011;5840;46.894;15.542;2023-05-27T01:27:03;8.57;;;7.83;;
11568;SDS011;5840;46.894;15.542;2023-05-27T01:29:30;8.70;;;8.00;;
11568;SDS011;5840;46.894;15.542;2023-05-27T01:32:00;8.87;;;8.17;;
11568;SDS011;5840;46.894;15.542;2023-05-27T01:34:33;8.20;;;7.50;;
11568;SDS011;5840;46.894;15.542;2023-05-27T01:37:04;8.63;;;7.93;;
11568;SDS011;5840;46.894;15.542;2023-05-27T01:39:34;8.87;;;8.13;;
11568;SDS011;5840;46.894;15.542;2023-05-27T01:42:03;9.30;;;8.50;;
11568;SDS011;5840;46.894;15.542;2023-05-27T01:44:31;9.40;;;8.60;;
11568;SDS011;5840;46.894;15.542;2023-05-27T01:46:59;9.10;;;8.27;;
11568;SDS011;5840;46.894;15.542;2023-05-27T01:49:26;8.87;;;8.10;;
11568;SDS011;5840;46.894;15.542;2023-05-27T01:51:54;9.37;;;8.47;;
11568;SDS011;5840;46.894;15.542;2023-05-27T01:54:21;9.30;;;8.50;;
11568;SDS011;5840;46.894;15.542;2023-05-27T01:56:49;9.97;;;8.60;;
11568;SDS011;5840;46.894;15.542;2023-05-27T01:59:16;8.43;;;7.73;;
11568;SDS011;5840;46.894;15.542;2023-05-27T02:01:43;9.17;;;8.37;;
11568;SDS011;5840;46.894;15.542;2023-05-27T02:04:10;10.00;;;8.23;;
11568;SDS011;5840;46.894;15.542;2023-05-27T02:06:37;8.30;;;7.60;;
11568;SDS011;5840;46.894;15.542;2023-05-27T02:09:05;8.80;;;8.07;;
11568;SDS011;5840;46.894;15.542;2023-05-27T02:11:32;9.27;;;8.47;;
11568;SDS011;5840;46.894;15.542;2023-05-27T02:14:00;9.07;;;8.27;;
11568;SDS011;5840;46.894;15.542;2023-05-27T02:16:27;9.97;;;7.90;;
11568;SDS011;5840;46.894;15.542;2023-05-27T02:18:55;8.83;;;8.10;;
11568;SDS011;5840;46.894;15.542;2023-05-27T02:21:22;8.90;;;8.10;;
11568;SDS011;5840;46.894;15.542;2023-05-27T02:23:49;8.97;;;8.27;;
11568;SDS011;5840;46.894;15.542;2023-05-27T02:26:16;8.83;;;8.07;;
11568;SDS011;5840;46.894;15.542;2023-05-27T02:28:43;9.23;;;8.43;;
11568;SDS011;5840;46.894;15.542;2023-05-27T02:31:12;8.73;;;8.00;;
11568;SDS011;5840;46.894;15.542;2023-05-27T02:33:38;9.70;;;8.70;;
11568;SDS011;5840;46.894;15.542;2023-05-27T02:36:05;8.43;;;7.70;;
11568;SDS011;5840;46.894;15.542;2023-05-27T02:38:33;9.37;;;8.47;;
11568;SDS011;5840;46.894;15.542;2023-05-27T02:41:00;8.87;;;8.17;;
11568;SDS011;5840;46.894;15.542;2023-05-27T02:43:27;9.13;;;8.30;;
11568;SDS011;5840;46.894;15.542;2023-05-27T02:45:54;9.53;;;8.63;;
11568;SDS011;5840;46.894;15.542;2023-05-27T02:48:22;9.90;;;9.10;;
11568;SDS011;5840;46.894;15.542;2023-05-27T02:50:49;9.77;;;8.87;;
11568;SDS011;5840;46.894;15.542;2023-05-27T02:53:16;9.07;;;8.27;;
11568;SDS011;5840;46.894;15.542;2023-05-27T02:55:43;9.67;;;8.77;;
11568;SDS011;5840;46.894;15.542;2023-05-27T02:58:10;10.20;;;9.30;;
11568;SDS011;5840;46.894;15.542;2023-05-27T03:00:37;9.47;;;8.53;;
11568;SDS011;5840;46.894;15.542;2023-05-27T03:03:03;9.37;;;8.57;;
11568;SDS011;5840;46.894;15.542;2023-05-27T03:05:33;9.53;;;8.63;;
11568;SDS011;5840;46.894;15.542;2023-05-27T03:08:00;10.20;;;9.30;;
11568;SDS011;5840;46.894;15.542;2023-05-27T03:10:28;9.47;;;8.63;;
11568;SDS011;5840;46.894;15.542;2023-05-27T03:12:54;9.67;;;8.87;;
11568;SDS011;5840;46.894;15.542;2023-05-27T03:15:22;10.43;;;9.63;;
11568;SDS011;5840;46.894;15.542;2023-05-27T03:17:48;10.80;;;9.90;;
11568;SDS011;5840;46.894;15.542;2023-05-27T03:20:17;10.70;;;9.70;;
11568;SDS011;5840;46.894;15.542;2023-05-27T03:22:45;9.80;;;8.90;;
11568;SDS011;5840;46.894;15.542;2023-05-27T03:25:12;10.70;;;9.60;;
11568;SDS011;5840;46.894;15.542;2023-05-27T03:27:39;9.43;;;8.50;;
11568;SDS011;5840;46.894;15.542;2023-05-27T03:30:07;10.80;;;9.77;;
11568;SDS011;5840;46.894;15.542;2023-05-27T03:32:34;9.83;;;9.03;;
11568;SDS011;5840;46.894;15.542;2023-05-27T03:35:01;10.33;;;9.33;;
11568;SDS011;5840;46.894;15.542;2023-05-27T03:37:28;10.33;;;9.43;;
11568;SDS011;5840;46.894;15.542;2023-05-27T03:39:57;9.73;;;8.90;;
11568;SDS011;5840;46.894;15.542;2023-05-27T03:42:24;10.00;;;9.20;;
11568;SDS011;5840;46.894;15.542;2023-05-27T03:44:51;10.30;;;9.37;;
11568;SDS011;5840;46.894;15.542;2023-05-27T03:47:17;9.73;;;9.00;;
11568;SDS011;5840;46.894;15.542;2023-05-27T03:49:46;10.13;;;9.23;;
11568;SDS011;5840;46.894;15.542;2023-05-27T03:52:13;11.57;;;10.50;;
11568;SDS011;5840;46.894;15.542;2023-05-27T03:54:40;10.70;;;9.80;;
11568;SDS011;5840;46.894;15.542;2023-05-27T03:57:09;10.80;;;9.77;;
11568;SDS011;5840;46.894;15.542;2023-05-27T03:59:36;11.07;;;10.00;;
11568;SDS011;5840;46.894;15.542;2023-05-27T04:02:03;11.30;;;10.07;;
11568;SDS011;5840;46.894;15.542;2023-05-27T04:04:30;10.90;;;9.90;;
11568;SDS011;5840;46.894;15.542;2023-05-27T04:06:57;11.83;;;10.83;;
11568;SDS011;5840;46.894;15.542;2023-05-27T04:09:24;10.77;;;9.87;;
11568;SDS011;5840;46.894;15.542;2023-05-27T04:11:51;10.40;;;9.53;;
11568;SDS011;5840;46.894;15.542;2023-05-27T04:14:19;10.73;;;9.73;;
11568;SDS011;5840;46.894;15.542;2023-05-27T04:16:46;11.40;;;10.37;;
11568;SDS011;5840;46.894;15.542;2023-05-27T04:19:13;10.73;;;9.83;;
11568;SDS011;5840;46.894;15.542;2023-05-27T04:21:40;10.93;;;9.80;;
11568;SDS011;5840;46.894;15.542;2023-05-27T04:24:07;11.50;;;10.30;;
11568;SDS011;5840;46.894;15.542;2023-05-27T04:26:34;11.80;;;10.60;;
11568;SDS011;5840;46.894;15.542;2023-05-27T04:29:01;11.37;;;10.27;;
11568;SDS011;5840;46.894;15.542;2023-05-27T04:31:30;10.20;;;9.40;;
11568;SDS011;5840;46.894;15.542;2023-05-27T04:33:57;10.43;;;9.53;;
11568;SDS011;5840;46.894;15.542;2023-05-27T04:36:24;10.47;;;9.57;;
11568;SDS011;5840;46.894;15.542;2023-05-27T04:38:58;11.43;;;10.43;;
11568;SDS011;5840;46.894;15.542;2023-05-27T04:41:26;10.83;;;9.73;;
11568;SDS011;5840;46.894;15.542;2023-05-27T04:43:53;10.30;;;9.43;;
11568;SDS011;5840;46.894;15.542;2023-05-27T04:46:22;11.63;;;10.73;;
11568;SDS011;5840;46.894;15.542;2023-05-27T04:48:51;12.17;;;10.93;;
11568;SDS011;5840;46.894;15.542;2023-05-27T04:51:18;12.23;;;11.23;;
11568;SDS011;5840;46.894;15.542;2023-05-27T04:53:45;11.97;;;10.80;;
11568;SDS011;5840;46.894;15.542;2023-05-27T04:56:14;14.07;;;11.17;;
11568;SDS011;5840;46.894;15.542;2023-05-27T04:58:42;12.13;;;10.73;;
11568;SDS011;5840;46.894;15.542;2023-05-27T05:01:11;11.30;;;10.40;;
11568;SDS011;5840;46.894;15.542;2023-05-27T05:03:42;10.73;;;9.73;;
11568;SDS011;5840;46.894;15.542;2023-05-27T05:06:18;11.27;;;10.40;;
11568;SDS011;5840;46.894;15.542;2023-05-27T05:08:47;10.83;;;9.93;;
11568;SDS011;5840;46.894;15.542;2023-05-27T05:11:14;10.93;;;9.97;;
11568;SDS011;5840;46.894;15.542;2023-05-27T05:13:41;11.43;;;10.43;;
11568;SDS011;5840;46.894;15.542;2023-05-27T05:16:08;11.27;;;10.27;;
11568;SDS011;5840;46.894;15.542;2023-05-27T05:18:35;11.27;;;10.23;;
11568;SDS011;5840;46.894;15.542;2023-05-27T05:21:02;10.57;;;9.73;;
11568;SDS011;5840;46.894;15.542;2023-05-27T05:23:32;10.33;;;9.43;;
11568;SDS011;5840;46.894;15.542;2023-05-27T05:25:58;10.83;;;9.73;;
11568;SDS011;5840;46.894;15.542;2023-05-27T05:28:31;11.27;;;10.10;;
11568;SDS011;5840;46.894;15.542;2023-05-27T05:30:59;11.50;;;10.60;;
11568;SDS011;5840;46.894;15.542;2023-05-27T05:33:26;12.63;;;11.43;;
11568;SDS011;5840;46.894;15.542;2023-05-27T05:35:53;12.77;;;11.47;;
11568;SDS011;5840;46.894;15.542;2023-05-27T05:38:20;12.23;;;11.13;;
11568;SDS011;5840;46.894;15.542;2023-05-27T05:40:48;12.53;;;11.40;;
11568;SDS011;5840;46.894;15.542;2023-05-27T05:43:17;12.80;;;11.70;;
11568;SDS011;5840;46.894;15.542;2023-05-27T05:45:45;12.97;;;11.77;;
11568;SDS011;5840;46.894;15.542;2023-05-27T05:48:12;14.37;;;13.07;;
11568;SDS011;5840;46.894;15.542;2023-05-27T05:50:39;12.80;;;11.70;;
11568;SDS011;5840;46.894;15.542;2023-05-27T05:53:05;11.50;;;10.60;;
11568;SDS011;5840;46.894;15.542;2023-05-27T05:55:32;11.77;;;10.77;;
11568;SDS011;5840;46.894;15.542;2023-05-27T05:58:01;12.63;;;11.27;;
11568;SDS011;5840;46.894;15.542;2023-05-27T06:00:28;12.23;;;11.23;;
11568;SDS011;5840;46.894;15.542;2023-05-27T06:02:55;11.83;;;10.70;;
11568;SDS011;5840;46.894;15.542;2023-05-27T06:05:22;12.60;;;11.30;;
11568;SDS011;5840;46.894;15.542;2023-05-27T06:07:51;13.07;;;11.87;;
11568;SDS011;5840;46.894;15.542;2023-05-27T06:10:18;12.93;;;11.83;;
11568;SDS011;5840;46.894;15.542;2023-05-27T06:12:45;12.67;;;11.57;;
11568;SDS011;5840;46.894;15.542;2023-05-27T06:15:13;12.60;;;11.40;;
11568;SDS011;5840;46.894;15.542;2023-05-27T06:17:40;12.13;;;11.07;;
11568;SDS011;5840;46.894;15.542;2023-05-27T06:20:08;10.43;;;9.63;;
11568;SDS011;5840;46.894;15.542;2023-05-27T06:22:35;11.57;;;10.47;;
11568;SDS011;5840;46.894;15.542;2023-05-27T06:25:02;11.23;;;10.17;;
11568;SDS011;5840;46.894;15.542;2023-05-27T06:27:29;11.90;;;10.90;;
11568;SDS011;5840;46.894;15.542;2023-05-27T06:29:56;11.67;;;10.57;;
11568;SDS011;5840;46.894;15.542;2023-05-27T06:32:24;10.63;;;9.60;;
11568;SDS011;5840;46.894;15.542;2023-05-27T06:34:51;11.10;;;10.07;;
11568;SDS011;5840;46.894;15.542;2023-05-27T06:37:19;11.27;;;10.17;;
11568;SDS011;5840;46.894;15.542;2023-05-27T06:39:46;11.40;;;10.40;;
11568;SDS011;5840;46.894;15.542;2023-05-27T06:42:13;10.70;;;9.80;;
11568;SDS011;5840;46.894;15.542;2023-05-27T06:44:40;10.83;;;9.83;;
11568;SDS011;5840;46.894;15.542;2023-05-27T06:47:07;10.90;;;9.80;;
11568;SDS011;5840;46.894;15.542;2023-05-27T06:49:35;10.43;;;9.43;;
11568;SDS011;5840;46.894;15.542;2023-05-27T06:52:02;10.40;;;9.60;;
11568;SDS011;5840;46.894;15.542;2023-05-27T06:54:30;9.93;;;9.03;;
11568;SDS011;5840;46.894;15.542;2023-05-27T06:56:57;10.20;;;9.20;;
11568;SDS011;5840;46.894;15.542;2023-05-27T06:59:24;9.80;;;8.97;;
11568;SDS011;5840;46.894;15.542;2023-05-27T07:01:51;10.13;;;9.13;;
11568;SDS011;5840;46.894;15.542;2023-05-27T07:04:18;10.37;;;9.47;;
11568;SDS011;5840;46.894;15.542;2023-05-27T07:06:46;10.47;;;9.50;;
11568;SDS011;5840;46.894;15.542;2023-05-27T07:09:13;9.73;;;8.73;;
11568;SDS011;5840;46.894;15.542;2023-05-27T07:11:40;10.03;;;9.23;;
11568;SDS011;5840;46.894;15.542;2023-05-27T07:14:07;10.03;;;9.17;;
11568;SDS011;5840;46.894;15.542;2023-05-27T07:16:35;9.40;;;8.50;;
11568;SDS011;5840;46.894;15.542;2023-05-27T07:21:31;9.03;;;8.23;;
11568;SDS011;5840;46.894;15.542;2023-05-27T07:24:00;9.20;;;8.40;;
11568;SDS011;5840;46.894;15.542;2023-05-27T07:26:28;9.87;;;9.00;;
11568;SDS011;5840;46.894;15.542;2023-05-27T07:28:56;10.13;;;8.00;;
11568;SDS011;5840;46.894;15.542;2023-05-27T07:31:24;8.07;;;7.47;;
11568;SDS011;5840;46.894;15.542;2023-05-27T07:33:52;8.73;;;7.93;;
11568;SDS011;5840;46.894;15.542;2023-05-27T07:36:19;9.97;;;8.47;;
11568;SDS011;5840;46.894;15.542;2023-05-27T07:38:46;8.17;;;7.50;;
11568;SDS011;5840;46.894;15.542;2023-05-27T07:41:14;8.93;;;8.13;;
11568;SDS011;5840;46.894;15.542;2023-05-27T07:43:41;8.80;;;8.10;;
11568;SDS011;5840;46.894;15.542;2023-05-27T07:46:08;8.03;;;7.33;;
11568;SDS011;5840;46.894;15.542;2023-05-27T07:48:35;8.00;;;7.30;;
11568;SDS011;5840;46.894;15.542;2023-05-27T07:51:02;8.43;;;7.73;;
11568;SDS011;5840;46.894;15.542;2023-05-27T07:53:29;6.60;;;6.10;;
11568;SDS011;5840;46.894;15.542;2023-05-27T07:55:56;7.23;;;6.53;;
11568;SDS011;5840;46.894;15.542;2023-05-27T07:58:24;8.43;;;7.20;;
11568;SDS011;5840;46.894;15.542;2023-05-27T08:00:51;7.30;;;6.53;;
11568;SDS011;5840;46.894;15.542;2023-05-27T08:03:18;8.20;;;7.23;;
11568;SDS011;5840;46.894;15.542;2023-05-27T08:05:45;6.83;;;6.27;;
11568;SDS011;5840;46.894;15.542;2023-05-27T08:08:12;7.87;;;6.13;;
11568;SDS011;5840;46.894;15.542;2023-05-27T08:10:40;7.23;;;6.53;;
11568;SDS011;5840;46.894;15.542;2023-05-27T08:13:07;7.90;;;6.13;;
11568;SDS011;5840;46.894;15.542;2023-05-27T08:15:35;5.97;;;5.37;;
11568;SDS011;5840;46.894;15.542;2023-05-27T08:18:02;5.50;;;4.70;;
11568;SDS011;5840;46.894;15.542;2023-05-27T08:20:29;5.23;;;4.73;;
11568;SDS011;5840;46.894;15.542;2023-05-27T08:22:56;6.10;;;4.83;;
11568;SDS011;5840;46.894;15.542;2023-05-27T08:25:23;5.60;;;4.87;;
11568;SDS011;5840;46.894;15.542;2023-05-27T08:27:50;6.90;;;5.67;;
11568;SDS011;5840;46.894;15.542;2023-05-27T08:30:18;6.90;;;5.10;;
11568;SDS011;5840;46.894;15.542;2023-05-27T08:32:47;6.13;;;4.70;;
11568;SDS011;5840;46.894;15.542;2023-05-27T08:35:14;4.53;;;4.17;;
11568;SDS011;5840;46.894;15.542;2023-05-27T08:37:42;6.23;;;4.90;;
11568;SDS011;5840;46.894;15.542;2023-05-27T08:40:13;5.00;;;4.50;;
11568;SDS011;5840;46.894;15.542;2023-05-27T08:42:41;4.57;;;3.90;;
11568;SDS011;5840;46.894;15.542;2023-05-27T08:45:09;5.40;;;4.20;;
11568;SDS011;5840;46.894;15.542;2023-05-27T08:47:37;4.73;;;4.33;;
11568;SDS011;5840;46.894;15.542;2023-05-27T08:50:06;5.20;;;4.40;;
11568;SDS011;5840;46.894;15.542;2023-05-27T08:52:38;5.03;;;4.53;;
11568;SDS011;5840;46.894;15.542;2023-05-27T08:55:14;5.53;;;4.53;;
11568;SDS011;5840;46.894;15.542;2023-05-27T08:57:42;7.60;;;5.17;;
11568;SDS011;5840;46.894;15.542;2023-05-27T09:00:13;7.60;;;4.67;;
11568;SDS011;5840;46.894;15.542;2023-05-27T09:02:40;5.67;;;4.83;;
11568;SDS011;5840;46.894;15.542;2023-05-27T09:05:09;6.57;;;5.70;;
11568;SDS011;5840;46.894;15.542;2023-05-27T09:07:37;5.27;;;4.77;;
11568;SDS011;5840;46.894;15.542;2023-05-27T09:10:04;6.53;;;5.37;;
11568;SDS011;5840;46.894;15.542;2023-05-27T09:12:32;5.60;;;5.10;;
11568;SDS011;5840;46.894;15.542;2023-05-27T09:15:00;7.70;;;5.70;;
11568;SDS011;5840;46.894;15.542;2023-05-27T09:17:27;8.77;;;5.10;;
11568;SDS011;5840;46.894;15.542;2023-05-27T09:19:54;6.80;;;5.20;;
11568;SDS011;5840;46.894;15.542;2023-05-27T09:22:23;6.47;;;4.70;;
11568;SDS011;5840;46.894;15.542;2023-05-27T09:24:52;5.33;;;4.80;;
11568;SDS011;5840;46.894;15.542;2023-05-27T09:27:23;5.23;;;4.73;;
11568;SDS011;5840;46.894;15.542;2023-05-27T09:29:51;5.23;;;4.53;;
11568;SDS011;5840;46.894;15.542;2023-05-27T09:32:25;5.40;;;4.60;;
11568;SDS011;5840;46.894;15.542;2023-05-27T09:34:52;7.37;;;4.73;;
11568;SDS011;5840;46.894;15.542;2023-05-27T09:37:19;6.30;;;4.90;;
11568;SDS011;5840;46.894;15.542;2023-05-27T09:39:52;5.37;;;4.87;;
11568;SDS011;5840;46.894;15.542;2023-05-27T09:42:19;5.33;;;4.23;;
11568;SDS011;5840;46.894;15.542;2023-05-27T09:44:46;5.20;;;4.70;;
11568;SDS011;5840;46.894;15.542;2023-05-27T09:47:15;5.33;;;4.00;;
11568;SDS011;5840;46.894;15.542;2023-05-27T09:49:45;5.23;;;4.33;;
11568;SDS011;5840;46.894;15.542;2023-05-27T09:52:15;7.97;;;4.67;;
11568;SDS011;5840;46.894;15.542;2023-05-27T09:54:46;6.67;;;4.90;;
11568;SDS011;5840;46.894;15.542;2023-05-27T09:57:16;5.23;;;4.57;;
11568;SDS011;5840;46.894;15.542;2023-05-27T09:59:45;5.03;;;4.13;;
11568;SDS011;5840;46.894;15.542;2023-05-27T10:02:12;4.87;;;4.33;;
11568;SDS011;5840;46.894;15.542;2023-05-27T10:04:43;5.63;;;4.63;;
11568;SDS011;5840;46.894;15.542;2023-05-27T10:07:13;7.30;;;4.70;;
11568;SDS011;5840;46.894;15.542;2023-05-27T10:09:44;5.83;;;4.30;;
11568;SDS011;5840;46.894;15.542;2023-05-27T10:12:12;5.07;;;4.40;;
11568;SDS011;5840;46.894;15.542;2023-05-27T10:14:43;5.03;;;4.20;;
11568;SDS011;5840;46.894;15.542;2023-05-27T10:17:11;7.67;;;4.77;;
11568;SDS011;5840;46.894;15.542;2023-05-27T10:19:48;5.50;;;4.70;;
11568;SDS011;5840;46.894;15.542;2023-05-27T10:22:20;4.83;;;4.33;;
11568;SDS011;5840;46.894;15.542;2023-05-27T10:24:46;6.93;;;4.90;;
11568;SDS011;5840;46.894;15.542;2023-05-27T10:27:16;5.10;;;4.20;;
11568;SDS011;5840;46.894;15.542;2023-05-27T10:29:43;6.47;;;4.67;;
11568;SDS011;5840;46.894;15.542;2023-05-27T10:32:10;6.00;;;4.50;;
11568;SDS011;5840;46.894;15.542;2023-05-27T10:34:37;4.83;;;4.40;;
11568;SDS011;5840;46.894;15.542;2023-05-27T10:37:11;4.77;;;4.30;;
11568;SDS011;5840;46.894;15.542;2023-05-27T10:39:52;5.07;;;4.30;;
11568;SDS011;5840;46.894;15.542;2023-05-27T10:42:22;6.00;;;4.73;;
11568;SDS011;5840;46.894;15.542;2023-05-27T10:44:49;7.90;;;5.03;;
11568;SDS011;5840;46.894;15.542;2023-05-27T10:47:28;4.83;;;4.13;;
11568;SDS011;5840;46.894;15.542;2023-05-27T10:49:55;4.97;;;4.47;;
11568;SDS011;5840;46.894;15.542;2023-05-27T10:52:23;5.73;;;4.67;;
11568;SDS011;5840;46.894;15.542;2023-05-27T10:54:52;5.43;;;4.93;;
11568;SDS011;5840;46.894;15.542;2023-05-27T10:57:24;6.63;;;5.13;;
11568;SDS011;5840;46.894;15.542;2023-05-27T10:59:51;4.87;;;4.47;;
11568;SDS011;5840;46.894;15.542;2023-05-27T11:02:19;6.80;;;4.70;;
11568;SDS011;5840;46.894;15.542;2023-05-27T11:04:48;5.57;;;4.33;;
11568;SDS011;5840;46.894;15.542;2023-05-27T11:07:17;5.20;;;4.70;;
11568;SDS011;5840;46.894;15.542;2023-05-27T11:09:44;6.43;;;5.00;;
11568;SDS011;5840;46.894;15.542;2023-05-27T11:12:13;5.17;;;4.40;;
11568;SDS011;5840;46.894;15.542;2023-05-27T11:14:42;9.73;;;4.70;;
11568;SDS011;5840;46.894;15.542;2023-05-27T11:17:10;7.47;;;5.20;;
11568;SDS011;5840;46.894;15.542;2023-05-27T11:19:38;5.37;;;4.83;;
11568;SDS011;5840;46.894;15.542;2023-05-27T11:22:05;5.57;;;4.97;;
11568;SDS011;5840;46.894;15.542;2023-05-27T11:24:32;8.13;;;5.27;;
11568;SDS011;5840;46.894;15.542;2023-05-27T11:26:59;5.37;;;4.87;;
11568;SDS011;5840;46.894;15.542;2023-05-27T11:29:27;5.23;;;4.80;;
11568;SDS011;5840;46.894;15.542;2023-05-27T11:31:56;5.27;;;4.80;;
11568;SDS011;5840;46.894;15.542;2023-05-27T11:34:23;6.47;;;4.83;;
11568;SDS011;5840;46.894;15.542;2023-05-27T11:36:50;6.10;;;5.47;;
11568;SDS011;5840;46.894;15.542;2023-05-27T11:39:18;6.03;;;5.20;;
11568;SDS011;5840;46.894;15.542;2023-05-27T11:41:48;6.83;;;5.23;;
11568;SDS011;5840;46.894;15.542;2023-05-27T11:44:17;5.60;;;5.10;;
11568;SDS011;5840;46.894;15.542;2023-05-27T11:46:46;7.17;;;5.17;;
11568;SDS011;5840;46.894;15.542;2023-05-27T11:49:16;5.67;;;5.13;;
11568;SDS011;5840;46.894;15.542;2023-05-27T11:51:44;5.33;;;4.83;;
11568;SDS011;5840;46.894;15.542;2023-05-27T11:54:16;6.53;;;5.60;;
11568;SDS011;5840;46.894;15.542;2023-05-27T11:56:45;5.60;;;5.13;;
11568;SDS011;5840;46.894;15.542;2023-05-27T11:59:11;8.40;;;5.93;;
11568;SDS011;5840;46.894;15.542;2023-05-27T12:01:39;5.17;;;4.67;;
11568;SDS011;5840;46.894;15.542;2023-05-27T12:04:06;6.00;;;5.40;;
11568;SDS011;5840;46.894;15.542;2023-05-27T12:06:34;5.73;;;5.20;;
11568;SDS011;5840;46.894;15.542;2023-05-27T12:09:02;6.87;;;5.23;;
11568;SDS011;5840;46.894;15.542;2023-05-27T12:11:30;6.50;;;5.70;;
11568;SDS011;5840;46.894;15.542;2023-05-27T12:13:57;6.73;;;5.50;;
11568;SDS011;5840;46.894;15.542;2023-05-27T12:16:24;9.77;;;5.60;;
11568;SDS011;5840;46.894;15.542;2023-05-27T12:18:51;5.90;;;5.40;;
11568;SDS011;5840;46.894;15.542;2023-05-27T12:21:18;6.00;;;5.50;;
11568;SDS011;5840;46.894;15.542;2023-05-27T12:23:47;6.10;;;5.50;;
11568;SDS011;5840;46.894;15.542;2023-05-27T12:26:14;6.27;;;5.70;;
11568;SDS011;5840;46.894;15.542;2023-05-27T12:28:42;6.60;;;6.00;;
11568;SDS011;5840;46.894;15.542;2023-05-27T12:31:10;7.07;;;5.50;;
11568;SDS011;5840;46.894;15.542;2023-05-27T12:33:37;6.23;;;5.63;;
11568;SDS011;5840;46.894;15.542;2023-05-27T12:36:04;7.00;;;5.50;;
11568;SDS011;5840;46.894;15.542;2023-05-27T12:38:31;5.70;;;5.20;;
11568;SDS011;5840;46.894;15.542;2023-05-27T12:41:00;7.30;;;6.13;;
11568;SDS011;5840;46.894;15.542;2023-05-27T12:43:27;6.90;;;5.57;;
11568;SDS011;5840;46.894;15.542;2023-05-27T12:45:54;6.13;;;5.60;;
11568;SDS011;5840;46.894;15.542;2023-05-27T12:48:21;6.27;;;5.60;;
11568;SDS011;5840;46.894;15.542;2023-05-27T12:50:48;6.60;;;5.40;;
11568;SDS011;5840;46.894;15.542;2023-05-27T12:53:15;7.90;;;5.60;;
11568;SDS011;5840;46.894;15.542;2023-05-27T12:55:43;9.60;;;6.20;;
11568;SDS011;5840;46.894;15.542;2023-05-27T12:58:11;6.37;;;5.13;;
11568;SDS011;5840;46.894;15.542;2023-05-27T13:00:38;6.10;;;5.50;;
11568;SDS011;5840;46.894;15.542;2023-05-27T13:03:06;6.37;;;5.03;;
11568;SDS011;5840;46.894;15.542;2023-05-27T13:05:33;6.20;;;5.60;;
11568;SDS011;5840;46.894;15.542;2023-05-27T13:08:00;6.37;;;5.77;;
11568;SDS011;5840;46.894;15.542;2023-05-27T13:10:29;7.20;;;5.67;;
11568;SDS011;5840;46.894;15.542;2023-05-27T13:12:57;6.13;;;5.53;;
11568;SDS011;5840;46.894;15.542;2023-05-27T13:15:28;6.63;;;5.83;;
11568;SDS011;5840;46.894;15.542;2023-05-27T13:17:55;6.10;;;5.53;;
11568;SDS011;5840;46.894;15.542;2023-05-27T13:20:24;11.10;;;9.07;;
11568;SDS011;5840;46.894;15.542;2023-05-27T13:22:53;7.07;;;6.43;;
11568;SDS011;5840;46.894;15.542;2023-05-27T13:25:24;6.30;;;5.70;;
11568;SDS011;5840;46.894;15.542;2023-05-27T13:27:52;7.53;;;5.63;;
11568;SDS011;5840;46.894;15.542;2023-05-27T13:30:19;6.70;;;5.80;;
11568;SDS011;5840;46.894;15.542;2023-05-27T13:32:48;7.03;;;6.33;;
11568;SDS011;5840;46.894;15.542;2023-05-27T13:35:15;6.77;;;6.00;;
11568;SDS011;5840;46.894;15.542;2023-05-27T13:37:42;6.10;;;5.50;;
11568;SDS011;5840;46.894;15.542;2023-05-27T13:40:10;6.37;;;5.53;;
11568;SDS011;5840;46.894;15.542;2023-05-27T13:42:37;6.60;;;5.90;;
11568;SDS011;5840;46.894;15.542;2023-05-27T13:45:06;6.10;;;5.50;;
11568;SDS011;5840;46.894;15.542;2023-05-27T13:47:33;6.70;;;6.00;;
11568;SDS011;5840;46.894;15.542;2023-05-27T13:50:02;6.63;;;5.70;;
11568;SDS011;5840;46.894;15.542;2023-05-27T13:52:29;6.73;;;6.07;;
11568;SDS011;5840;46.894;15.542;2023-05-27T13:54:55;7.20;;;5.90;;
11568;SDS011;5840;46.894;15.542;2023-05-27T13:57:22;8.50;;;6.20;;
11568;SDS011;5840;46.894;15.542;2023-05-27T13:59:49;6.10;;;5.43;;
11568;SDS011;5840;46.894;15.542;2023-05-27T14:02:16;5.87;;;5.30;;
11568;SDS011;5840;46.894;15.542;2023-05-27T14:04:43;6.43;;;5.77;;
11568;SDS011;5840;46.894;15.542;2023-05-27T14:07:11;7.20;;;6.00;;
11568;SDS011;5840;46.894;15.542;2023-05-27T14:09:38;5.97;;;5.37;;
11568;SDS011;5840;46.894;15.542;2023-05-27T14:12:06;6.93;;;5.50;;
11568;SDS011;5840;46.894;15.542;2023-05-27T14:14:33;7.30;;;5.83;;
11568;SDS011;5840;46.894;15.542;2023-05-27T14:17:01;6.17;;;5.57;;
11568;SDS011;5840;46.894;15.542;2023-05-27T14:19:28;6.70;;;5.77;;
11568;SDS011;5840;46.894;15.542;2023-05-27T14:21:55;5.60;;;5.20;;
11568;SDS011;5840;46.894;15.542;2023-05-27T14:24:23;8.27;;;5.60;;
11568;SDS011;5840;46.894;15.542;2023-05-27T14:26:50;6.47;;;5.73;;
11568;SDS011;5840;46.894;15.542;2023-05-27T14:29:17;6.70;;;5.80;;
11568;SDS011;5840;46.894;15.542;2023-05-27T14:31:44;6.47;;;5.87;;
11568;SDS011;5840;46.894;15.542;2023-05-27T14:34:11;6.50;;;5.80;;
11568;SDS011;5840;46.894;15.542;2023-05-27T14:36:38;5.60;;;5.10;;
11568;SDS011;5840;46.894;15.542;2023-05-27T14:39:05;7.50;;;6.23;;
11568;SDS011;5840;46.894;15.542;2023-05-27T14:41:34;6.83;;;6.13;;
11568;SDS011;5840;46.894;15.542;2023-05-27T14:44:01;8.43;;;5.60;;
11568;SDS011;5840;46.894;15.542;2023-05-27T14:46:29;6.50;;;5.87;;
11568;SDS011;5840;46.894;15.542;2023-05-27T14:48:56;6.67;;;5.97;;